sensor_id;sensor_type;location;lat;lon;timestamp;P1;durP1;ratioP1;P2;durP2;ratioP2
57341;SDS011;43175;51.002;18.316;2023-04-25T00:02:20;16.90;;;8.90;;
57341;SDS011;43175;51.002;18.316;2023-04-25T00:04:46;15.80;;;8.90;;
57341;SDS011;43175;51.002;18.316;2023-04-25T00:07:14;15.50;;;8.30;;
57341;SDS011;43175;51.002;18.316;2023-04-25T00:09:40;15.00;;;8.10;;
57341;SDS011;43175;51.002;18.316;2023-04-25T00:12:06;15.70;;;7.70;;
57341;SDS011;43175;51.002;18.316;2023-04-25T00:14:31;15.00;;;7.40;;
57341;SDS011;43175;51.002;18.316;2023-04-25T00:16:59;14.00;;;7.00;;
57341;SDS011;43175;51.002;18.316;2023-04-25T00:19:25;14.50;;;7.40;;
57341;SDS011;43175;51.002;18.316;2023-04-25T00:21:54;12.80;;;6.40;;
57341;SDS011;43175;51.002;18.316;2023-04-25T00:24:20;13.40;;;6.30;;
57341;SDS011;43175;51.002;18.316;2023-04-25T00:26:46;12.80;;;6.00;;
57341;SDS011;43175;51.002;18.316;2023-04-25T00:29:11;11.80;;;6.00;;
57341;SDS011;43175;51.002;18.316;2023-04-25T00:31:36;11.00;;;5.30;;
57341;SDS011;43175;51.002;18.316;2023-04-25T00:34:03;11.80;;;5.70;;
57341;SDS011;43175;51.002;18.316;2023-04-25T00:36:28;13.40;;;5.60;;
57341;SDS011;43175;51.002;18.316;2023-04-25T00:38:53;11.80;;;5.60;;
57341;SDS011;43175;51.002;18.316;2023-04-25T00:41:20;11.30;;;5.80;;
57341;SDS011;43175;51.002;18.316;2023-04-25T00:43:46;13.10;;;5.60;;
57341;SDS011;43175;51.002;18.316;2023-04-25T00:46:13;12.60;;;5.90;;
57341;SDS011;43175;51.002;18.316;2023-04-25T00:48:38;12.60;;;5.60;;
57341;SDS011;43175;51.002;18.316;2023-04-25T00:51:04;11.50;;;5.50;;
57341;SDS011;43175;51.002;18.316;2023-04-25T00:53:30;10.90;;;5.10;;
57341;SDS011;43175;51.002;18.316;2023-04-25T00:55:57;10.30;;;4.30;;
57341;SDS011;43175;51.002;18.316;2023-04-25T00:58:23;11.30;;;4.00;;
57341;SDS011;43175;51.002;18.316;2023-04-25T01:00:50;9.70;;;3.70;;
57341;SDS011;43175;51.002;18.316;2023-04-25T01:03:17;11.50;;;3.50;;
57341;SDS011;43175;51.002;18.316;2023-04-25T01:05:45;10.50;;;3.40;;
57341;SDS011;43175;51.002;18.316;2023-04-25T01:08:12;9.10;;;3.50;;
57341;SDS011;43175;51.002;18.316;2023-04-25T01:10:38;10.30;;;3.60;;
57341;SDS011;43175;51.002;18.316;2023-04-25T01:13:03;9.20;;;3.50;;
57341;SDS011;43175;51.002;18.316;2023-04-25T01:15:29;11.10;;;3.50;;
57341;SDS011;43175;51.002;18.316;2023-04-25T01:17:55;9.60;;;3.90;;
57341;SDS011;43175;51.002;18.316;2023-04-25T01:20:21;12.40;;;4.00;;
57341;SDS011;43175;51.002;18.316;2023-04-25T01:22:48;10.60;;;4.20;;
57341;SDS011;43175;51.002;18.316;2023-04-25T01:25:15;10.70;;;4.80;;
57341;SDS011;43175;51.002;18.316;2023-04-25T01:27:41;11.80;;;5.40;;
57341;SDS011;43175;51.002;18.316;2023-04-25T01:30:06;11.40;;;5.00;;
57341;SDS011;43175;51.002;18.316;2023-04-25T01:32:33;12.20;;;4.70;;
57341;SDS011;43175;51.002;18.316;2023-04-25T01:35:04;10.20;;;4.40;;
57341;SDS011;43175;51.002;18.316;2023-04-25T01:37:37;11.40;;;4.60;;
57341;SDS011;43175;51.002;18.316;2023-04-25T01:40:08;10.40;;;4.60;;
57341;SDS011;43175;51.002;18.316;2023-04-25T01:42:35;11.60;;;4.70;;
57341;SDS011;43175;51.002;18.316;2023-04-25T01:45:02;10.90;;;4.30;;
57341;SDS011;43175;51.002;18.316;2023-04-25T01:47:28;12.30;;;4.60;;
57341;SDS011;43175;51.002;18.316;2023-04-25T01:49:54;12.50;;;4.90;;
57341;SDS011;43175;51.002;18.316;2023-04-25T01:52:20;9.90;;;4.60;;
57341;SDS011;43175;51.002;18.316;2023-04-25T01:54:45;10.40;;;4.60;;
57341;SDS011;43175;51.002;18.316;2023-04-25T01:57:11;10.70;;;4.50;;
57341;SDS011;43175;51.002;18.316;2023-04-25T01:59:37;11.60;;;4.60;;
57341;SDS011;43175;51.002;18.316;2023-04-25T02:02:03;12.30;;;4.60;;
57341;SDS011;43175;51.002;18.316;2023-04-25T02:04:29;10.40;;;4.60;;
57341;SDS011;43175;51.002;18.316;2023-04-25T02:06:55;9.50;;;4.20;;
57341;SDS011;43175;51.002;18.316;2023-04-25T02:09:21;10.00;;;4.00;;
57341;SDS011;43175;51.002;18.316;2023-04-25T02:11:47;10.00;;;4.20;;
57341;SDS011;43175;51.002;18.316;2023-04-25T02:14:12;10.80;;;4.00;;
57341;SDS011;43175;51.002;18.316;2023-04-25T02:16:38;11.30;;;3.90;;
57341;SDS011;43175;51.002;18.316;2023-04-25T02:19:03;9.10;;;3.80;;
57341;SDS011;43175;51.002;18.316;2023-04-25T02:21:30;11.50;;;3.70;;
57341;SDS011;43175;51.002;18.316;2023-04-25T02:23:56;10.20;;;3.70;;
57341;SDS011;43175;51.002;18.316;2023-04-25T02:26:21;9.60;;;3.60;;
57341;SDS011;43175;51.002;18.316;2023-04-25T02:28:49;9.00;;;3.60;;
57341;SDS011;43175;51.002;18.316;2023-04-25T02:31:15;10.50;;;3.90;;
57341;SDS011;43175;51.002;18.316;2023-04-25T02:33:41;10.20;;;4.00;;
57341;SDS011;43175;51.002;18.316;2023-04-25T02:36:07;9.00;;;3.70;;
57341;SDS011;43175;51.002;18.316;2023-04-25T02:38:33;10.20;;;3.80;;
57341;SDS011;43175;51.002;18.316;2023-04-25T02:40:58;12.10;;;3.90;;
57341;SDS011;43175;51.002;18.316;2023-04-25T02:43:24;10.40;;;4.30;;
57341;SDS011;43175;51.002;18.316;2023-04-25T02:45:49;10.40;;;3.80;;
57341;SDS011;43175;51.002;18.316;2023-04-25T02:48:14;10.50;;;3.90;;
57341;SDS011;43175;51.002;18.316;2023-04-25T02:50:40;12.10;;;4.00;;
57341;SDS011;43175;51.002;18.316;2023-04-25T02:53:05;12.70;;;4.30;;
57341;SDS011;43175;51.002;18.316;2023-04-25T02:55:31;10.50;;;4.50;;
57341;SDS011;43175;51.002;18.316;2023-04-25T02:57:56;10.70;;;3.80;;
57341;SDS011;43175;51.002;18.316;2023-04-25T03:00:22;11.80;;;4.30;;
57341;SDS011;43175;51.002;18.316;2023-04-25T03:02:47;9.70;;;4.20;;
57341;SDS011;43175;51.002;18.316;2023-04-25T03:05:13;10.30;;;4.60;;
57341;SDS011;43175;51.002;18.316;2023-04-25T03:07:38;10.30;;;4.70;;
57341;SDS011;43175;51.002;18.316;2023-04-25T03:10:05;10.80;;;5.20;;
57341;SDS011;43175;51.002;18.316;2023-04-25T03:12:32;13.10;;;7.30;;
57341;SDS011;43175;51.002;18.316;2023-04-25T03:14:57;37.80;;;25.70;;
57341;SDS011;43175;51.002;18.316;2023-04-25T03:17:23;27.60;;;19.50;;
57341;SDS011;43175;51.002;18.316;2023-04-25T03:19:49;20.60;;;13.50;;
57341;SDS011;43175;51.002;18.316;2023-04-25T03:22:15;17.70;;;11.10;;
57341;SDS011;43175;51.002;18.316;2023-04-25T03:24:40;13.80;;;8.00;;
57341;SDS011;43175;51.002;18.316;2023-04-25T03:27:06;13.10;;;6.00;;
57341;SDS011;43175;51.002;18.316;2023-04-25T03:29:31;11.10;;;4.80;;
57341;SDS011;43175;51.002;18.316;2023-04-25T03:31:56;11.00;;;4.60;;
57341;SDS011;43175;51.002;18.316;2023-04-25T03:34:23;10.90;;;4.40;;
57341;SDS011;43175;51.002;18.316;2023-04-25T03:36:49;10.70;;;4.80;;
57341;SDS011;43175;51.002;18.316;2023-04-25T03:39:15;10.20;;;4.40;;
57341;SDS011;43175;51.002;18.316;2023-04-25T03:41:41;13.40;;;5.20;;
57341;SDS011;43175;51.002;18.316;2023-04-25T03:44:06;11.60;;;4.90;;
57341;SDS011;43175;51.002;18.316;2023-04-25T03:46:32;10.30;;;4.60;;
57341;SDS011;43175;51.002;18.316;2023-04-25T03:48:57;10.10;;;4.70;;
57341;SDS011;43175;51.002;18.316;2023-04-25T03:51:22;10.10;;;4.90;;
57341;SDS011;43175;51.002;18.316;2023-04-25T03:53:48;10.40;;;4.50;;
57341;SDS011;43175;51.002;18.316;2023-04-25T03:56:13;12.60;;;5.20;;
57341;SDS011;43175;51.002;18.316;2023-04-25T03:58:39;12.20;;;5.20;;
57341;SDS011;43175;51.002;18.316;2023-04-25T04:01:04;11.00;;;5.00;;
57341;SDS011;43175;51.002;18.316;2023-04-25T04:03:35;10.70;;;5.00;;
57341;SDS011;43175;51.002;18.316;2023-04-25T04:06:01;12.10;;;5.40;;
57341;SDS011;43175;51.002;18.316;2023-04-25T04:08:29;11.60;;;5.30;;
57341;SDS011;43175;51.002;18.316;2023-04-25T04:10:55;10.70;;;4.70;;
57341;SDS011;43175;51.002;18.316;2023-04-25T04:13:21;11.60;;;4.60;;
57341;SDS011;43175;51.002;18.316;2023-04-25T04:15:47;11.40;;;4.70;;
57341;SDS011;43175;51.002;18.316;2023-04-25T04:18:12;9.80;;;4.40;;
57341;SDS011;43175;51.002;18.316;2023-04-25T04:20:38;10.50;;;4.80;;
57341;SDS011;43175;51.002;18.316;2023-04-25T04:23:03;10.10;;;4.30;;
57341;SDS011;43175;51.002;18.316;2023-04-25T04:25:28;11.30;;;5.40;;
57341;SDS011;43175;51.002;18.316;2023-04-25T04:27:55;10.90;;;4.50;;
57341;SDS011;43175;51.002;18.316;2023-04-25T04:30:21;10.40;;;4.30;;
57341;SDS011;43175;51.002;18.316;2023-04-25T04:32:50;9.50;;;4.20;;
57341;SDS011;43175;51.002;18.316;2023-04-25T04:35:16;10.70;;;4.70;;
57341;SDS011;43175;51.002;18.316;2023-04-25T04:37:42;12.20;;;4.60;;
57341;SDS011;43175;51.002;18.316;2023-04-25T04:40:09;10.90;;;4.50;;
57341;SDS011;43175;51.002;18.316;2023-04-25T04:42:35;10.60;;;4.70;;
57341;SDS011;43175;51.002;18.316;2023-04-25T04:45:02;11.20;;;5.00;;
57341;SDS011;43175;51.002;18.316;2023-04-25T04:47:28;10.50;;;4.80;;
57341;SDS011;43175;51.002;18.316;2023-04-25T04:49:57;11.60;;;4.90;;
57341;SDS011;43175;51.002;18.316;2023-04-25T04:52:23;11.60;;;5.00;;
57341;SDS011;43175;51.002;18.316;2023-04-25T04:54:48;11.70;;;4.80;;
57341;SDS011;43175;51.002;18.316;2023-04-25T04:57:13;10.40;;;4.50;;
57341;SDS011;43175;51.002;18.316;2023-04-25T04:59:39;12.20;;;4.80;;
57341;SDS011;43175;51.002;18.316;2023-04-25T05:02:05;11.00;;;5.00;;
57341;SDS011;43175;51.002;18.316;2023-04-25T05:04:30;11.10;;;4.80;;
57341;SDS011;43175;51.002;18.316;2023-04-25T05:06:55;13.30;;;4.90;;
57341;SDS011;43175;51.002;18.316;2023-04-25T05:09:21;10.70;;;4.80;;
57341;SDS011;43175;51.002;18.316;2023-04-25T05:11:51;10.40;;;4.70;;
57341;SDS011;43175;51.002;18.316;2023-04-25T05:14:17;12.00;;;5.20;;
57341;SDS011;43175;51.002;18.316;2023-04-25T05:16:43;10.30;;;4.70;;
57341;SDS011;43175;51.002;18.316;2023-04-25T05:19:08;10.50;;;4.40;;
57341;SDS011;43175;51.002;18.316;2023-04-25T05:21:34;10.70;;;4.50;;
57341;SDS011;43175;51.002;18.316;2023-04-25T05:24:00;13.30;;;5.50;;
57341;SDS011;43175;51.002;18.316;2023-04-25T05:26:26;14.80;;;6.50;;
57341;SDS011;43175;51.002;18.316;2023-04-25T05:28:56;14.00;;;6.70;;
57341;SDS011;43175;51.002;18.316;2023-04-25T05:31:22;12.80;;;6.40;;
57341;SDS011;43175;51.002;18.316;2023-04-25T05:33:48;11.40;;;5.60;;
57341;SDS011;43175;51.002;18.316;2023-04-25T05:36:13;11.90;;;5.10;;
57341;SDS011;43175;51.002;18.316;2023-04-25T05:38:39;12.50;;;5.60;;
57341;SDS011;43175;51.002;18.316;2023-04-25T05:41:04;13.10;;;5.50;;
57341;SDS011;43175;51.002;18.316;2023-04-25T05:43:30;11.90;;;5.30;;
57341;SDS011;43175;51.002;18.316;2023-04-25T05:45:55;11.10;;;5.30;;
57341;SDS011;43175;51.002;18.316;2023-04-25T05:48:21;14.30;;;5.00;;
57341;SDS011;43175;51.002;18.316;2023-04-25T05:50:46;11.10;;;5.10;;
57341;SDS011;43175;51.002;18.316;2023-04-25T05:53:12;11.30;;;5.10;;
57341;SDS011;43175;51.002;18.316;2023-04-25T05:55:37;10.60;;;5.20;;
57341;SDS011;43175;51.002;18.316;2023-04-25T05:58:04;11.30;;;5.20;;
57341;SDS011;43175;51.002;18.316;2023-04-25T06:00:30;10.90;;;5.20;;
57341;SDS011;43175;51.002;18.316;2023-04-25T06:02:56;14.30;;;5.50;;
57341;SDS011;43175;51.002;18.316;2023-04-25T06:05:21;11.30;;;5.40;;
57341;SDS011;43175;51.002;18.316;2023-04-25T06:07:47;11.90;;;5.10;;
57341;SDS011;43175;51.002;18.316;2023-04-25T06:10:12;11.60;;;5.40;;
57341;SDS011;43175;51.002;18.316;2023-04-25T06:12:38;13.90;;;5.60;;
57341;SDS011;43175;51.002;18.316;2023-04-25T06:15:04;11.50;;;5.60;;
57341;SDS011;43175;51.002;18.316;2023-04-25T06:17:30;12.20;;;5.80;;
57341;SDS011;43175;51.002;18.316;2023-04-25T06:19:56;13.30;;;6.00;;
57341;SDS011;43175;51.002;18.316;2023-04-25T06:22:22;13.70;;;6.00;;
57341;SDS011;43175;51.002;18.316;2023-04-25T06:24:47;11.70;;;5.80;;
57341;SDS011;43175;51.002;18.316;2023-04-25T06:27:13;13.00;;;5.80;;
57341;SDS011;43175;51.002;18.316;2023-04-25T06:29:39;12.50;;;5.90;;
57341;SDS011;43175;51.002;18.316;2023-04-25T06:32:05;13.30;;;6.10;;
57341;SDS011;43175;51.002;18.316;2023-04-25T06:34:30;12.50;;;5.80;;
57341;SDS011;43175;51.002;18.316;2023-04-25T06:36:56;11.50;;;5.40;;
57341;SDS011;43175;51.002;18.316;2023-04-25T06:39:21;11.80;;;5.70;;
57341;SDS011;43175;51.002;18.316;2023-04-25T06:41:48;12.00;;;6.00;;
57341;SDS011;43175;51.002;18.316;2023-04-25T06:44:14;12.70;;;6.30;;
57341;SDS011;43175;51.002;18.316;2023-04-25T06:46:40;12.80;;;6.20;;
57341;SDS011;43175;51.002;18.316;2023-04-25T06:49:06;12.80;;;6.40;;
57341;SDS011;43175;51.002;18.316;2023-04-25T06:51:31;13.70;;;6.20;;
57341;SDS011;43175;51.002;18.316;2023-04-25T06:53:57;13.20;;;6.30;;
57341;SDS011;43175;51.002;18.316;2023-04-25T06:56:22;15.30;;;6.00;;
57341;SDS011;43175;51.002;18.316;2023-04-25T06:58:49;14.10;;;6.50;;
57341;SDS011;43175;51.002;18.316;2023-04-25T07:01:15;13.80;;;6.40;;
57341;SDS011;43175;51.002;18.316;2023-04-25T07:03:40;14.40;;;6.60;;
57341;SDS011;43175;51.002;18.316;2023-04-25T07:06:06;14.00;;;6.30;;
57341;SDS011;43175;51.002;18.316;2023-04-25T07:08:32;12.90;;;6.70;;
57341;SDS011;43175;51.002;18.316;2023-04-25T07:10:57;14.80;;;7.00;;
57341;SDS011;43175;51.002;18.316;2023-04-25T07:13:23;12.40;;;6.40;;
57341;SDS011;43175;51.002;18.316;2023-04-25T07:15:48;13.70;;;6.60;;
57341;SDS011;43175;51.002;18.316;2023-04-25T07:18:14;15.20;;;7.20;;
57341;SDS011;43175;51.002;18.316;2023-04-25T07:20:40;12.90;;;6.80;;
57341;SDS011;43175;51.002;18.316;2023-04-25T07:23:05;12.40;;;6.10;;
57341;SDS011;43175;51.002;18.316;2023-04-25T07:25:31;14.30;;;6.50;;
57341;SDS011;43175;51.002;18.316;2023-04-25T07:27:57;14.10;;;7.00;;
57341;SDS011;43175;51.002;18.316;2023-04-25T07:30:22;11.60;;;6.20;;
57341;SDS011;43175;51.002;18.316;2023-04-25T07:32:49;12.80;;;6.60;;
57341;SDS011;43175;51.002;18.316;2023-04-25T07:35:16;15.40;;;7.10;;
57341;SDS011;43175;51.002;18.316;2023-04-25T07:37:42;12.90;;;6.60;;
57341;SDS011;43175;51.002;18.316;2023-04-25T07:40:07;12.10;;;5.70;;
57341;SDS011;43175;51.002;18.316;2023-04-25T07:42:34;13.40;;;6.60;;
57341;SDS011;43175;51.002;18.316;2023-04-25T07:45:00;14.60;;;6.80;;
57341;SDS011;43175;51.002;18.316;2023-04-25T07:47:26;13.30;;;6.80;;
57341;SDS011;43175;51.002;18.316;2023-04-25T07:49:51;13.70;;;6.70;;
57341;SDS011;43175;51.002;18.316;2023-04-25T07:52:17;12.30;;;6.30;;
57341;SDS011;43175;51.002;18.316;2023-04-25T07:54:42;11.90;;;6.00;;
57341;SDS011;43175;51.002;18.316;2023-04-25T07:57:08;11.90;;;6.30;;
57341;SDS011;43175;51.002;18.316;2023-04-25T07:59:33;14.00;;;6.50;;
57341;SDS011;43175;51.002;18.316;2023-04-25T08:01:59;16.90;;;6.50;;
57341;SDS011;43175;51.002;18.316;2023-04-25T08:04:25;12.40;;;6.40;;
57341;SDS011;43175;51.002;18.316;2023-04-25T08:06:51;13.50;;;6.50;;
57341;SDS011;43175;51.002;18.316;2023-04-25T08:09:17;11.60;;;5.60;;
57341;SDS011;43175;51.002;18.316;2023-04-25T08:11:43;14.90;;;6.20;;
57341;SDS011;43175;51.002;18.316;2023-04-25T08:14:08;12.80;;;6.60;;
57341;SDS011;43175;51.002;18.316;2023-04-25T08:16:34;12.40;;;5.80;;
57341;SDS011;43175;51.002;18.316;2023-04-25T08:19:00;12.20;;;5.90;;
57341;SDS011;43175;51.002;18.316;2023-04-25T08:21:26;14.20;;;5.70;;
57341;SDS011;43175;51.002;18.316;2023-04-25T08:23:52;12.50;;;5.70;;
57341;SDS011;43175;51.002;18.316;2023-04-25T08:26:18;12.60;;;6.60;;
57341;SDS011;43175;51.002;18.316;2023-04-25T08:28:43;12.60;;;5.70;;
57341;SDS011;43175;51.002;18.316;2023-04-25T08:31:09;11.50;;;5.10;;
57341;SDS011;43175;51.002;18.316;2023-04-25T08:33:36;11.60;;;5.20;;
57341;SDS011;43175;51.002;18.316;2023-04-25T08:36:02;12.20;;;5.20;;
57341;SDS011;43175;51.002;18.316;2023-04-25T08:38:28;12.50;;;5.10;;
57341;SDS011;43175;51.002;18.316;2023-04-25T08:40:53;11.10;;;4.30;;
57341;SDS011;43175;51.002;18.316;2023-04-25T08:43:20;10.20;;;3.80;;
57341;SDS011;43175;51.002;18.316;2023-04-25T08:45:46;10.60;;;4.20;;
57341;SDS011;43175;51.002;18.316;2023-04-25T08:48:12;10.00;;;3.70;;
57341;SDS011;43175;51.002;18.316;2023-04-25T08:50:45;10.50;;;3.50;;
57341;SDS011;43175;51.002;18.316;2023-04-25T08:53:16;11.00;;;3.50;;
57341;SDS011;43175;51.002;18.316;2023-04-25T08:55:45;10.40;;;3.60;;
57341;SDS011;43175;51.002;18.316;2023-04-25T08:58:12;10.70;;;3.60;;
57341;SDS011;43175;51.002;18.316;2023-04-25T09:00:38;9.70;;;3.50;;
57341;SDS011;43175;51.002;18.316;2023-04-25T09:03:04;9.30;;;3.40;;
57341;SDS011;43175;51.002;18.316;2023-04-25T09:05:34;12.50;;;4.10;;
57341;SDS011;43175;51.002;18.316;2023-04-25T09:08:01;10.20;;;3.10;;
57341;SDS011;43175;51.002;18.316;2023-04-25T09:10:27;9.80;;;3.30;;
57341;SDS011;43175;51.002;18.316;2023-04-25T09:13:09;10.40;;;3.00;;
57341;SDS011;43175;51.002;18.316;2023-04-25T09:15:50;11.40;;;3.00;;
57341;SDS011;43175;51.002;18.316;2023-04-25T09:18:22;9.60;;;3.30;;
57341;SDS011;43175;51.002;18.316;2023-04-25T09:20:55;11.30;;;3.20;;
57341;SDS011;43175;51.002;18.316;2023-04-25T09:23:22;10.20;;;3.20;;
57341;SDS011;43175;51.002;18.316;2023-04-25T09:25:49;11.10;;;3.40;;
57341;SDS011;43175;51.002;18.316;2023-04-25T09:28:24;9.20;;;3.20;;
57341;SDS011;43175;51.002;18.316;2023-04-25T09:30:54;12.40;;;3.30;;
57341;SDS011;43175;51.002;18.316;2023-04-25T09:33:23;11.50;;;3.20;;
57341;SDS011;43175;51.002;18.316;2023-04-25T09:36:01;8.80;;;3.10;;
57341;SDS011;43175;51.002;18.316;2023-04-25T09:38:43;9.60;;;3.30;;
57341;SDS011;43175;51.002;18.316;2023-04-25T09:41:10;9.80;;;3.30;;
57341;SDS011;43175;51.002;18.316;2023-04-25T09:43:36;8.90;;;3.10;;
57341;SDS011;43175;51.002;18.316;2023-04-25T09:46:02;10.40;;;3.70;;
57341;SDS011;43175;51.002;18.316;2023-04-25T09:48:28;9.80;;;3.50;;
57341;SDS011;43175;51.002;18.316;2023-04-25T09:51:04;9.70;;;3.60;;
57341;SDS011;43175;51.002;18.316;2023-04-25T09:53:33;11.10;;;3.70;;
57341;SDS011;43175;51.002;18.316;2023-04-25T09:56:00;12.20;;;3.90;;
57341;SDS011;43175;51.002;18.316;2023-04-25T09:58:29;9.10;;;3.40;;
57341;SDS011;43175;51.002;18.316;2023-04-25T10:00:56;11.70;;;4.30;;
57341;SDS011;43175;51.002;18.316;2023-04-25T10:03:25;11.40;;;4.40;;
57341;SDS011;43175;51.002;18.316;2023-04-25T10:05:52;10.40;;;4.60;;
57341;SDS011;43175;51.002;18.316;2023-04-25T10:08:18;12.30;;;4.60;;
57341;SDS011;43175;51.002;18.316;2023-04-25T10:10:45;11.50;;;4.50;;
57341;SDS011;43175;51.002;18.316;2023-04-25T10:13:12;10.30;;;4.30;;
57341;SDS011;43175;51.002;18.316;2023-04-25T10:15:39;10.30;;;4.70;;
57341;SDS011;43175;51.002;18.316;2023-04-25T10:18:06;13.60;;;4.60;;
57341;SDS011;43175;51.002;18.316;2023-04-25T10:20:32;11.00;;;4.60;;
57341;SDS011;43175;51.002;18.316;2023-04-25T10:23:07;13.40;;;4.40;;
57341;SDS011;43175;51.002;18.316;2023-04-25T10:25:38;11.00;;;4.60;;
57341;SDS011;43175;51.002;18.316;2023-04-25T10:28:04;10.70;;;4.70;;
57341;SDS011;43175;51.002;18.316;2023-04-25T10:30:30;12.50;;;5.20;;
57341;SDS011;43175;51.002;18.316;2023-04-25T10:32:55;11.20;;;5.10;;
57341;SDS011;43175;51.002;18.316;2023-04-25T10:35:25;11.40;;;4.90;;
57341;SDS011;43175;51.002;18.316;2023-04-25T10:41:03;10.90;;;4.70;;
57341;SDS011;43175;51.002;18.316;2023-04-25T10:43:36;10.20;;;4.20;;
57341;SDS011;43175;51.002;18.316;2023-04-25T10:48:48;12.60;;;5.50;;
57341;SDS011;43175;51.002;18.316;2023-04-25T10:51:22;11.70;;;4.80;;
57341;SDS011;43175;51.002;18.316;2023-04-25T10:54:00;12.00;;;4.60;;
57341;SDS011;43175;51.002;18.316;2023-04-25T10:56:28;11.20;;;5.10;;
57341;SDS011;43175;51.002;18.316;2023-04-25T10:59:05;12.50;;;5.00;;
57341;SDS011;43175;51.002;18.316;2023-04-25T11:01:35;13.00;;;5.10;;
57341;SDS011;43175;51.002;18.316;2023-04-25T11:04:06;11.20;;;4.80;;
57341;SDS011;43175;51.002;18.316;2023-04-25T11:06:37;11.20;;;5.20;;
57341;SDS011;43175;51.002;18.316;2023-04-25T11:09:09;12.20;;;4.90;;
57341;SDS011;43175;51.002;18.316;2023-04-25T11:11:38;11.40;;;4.80;;
57341;SDS011;43175;51.002;18.316;2023-04-25T11:14:03;12.80;;;5.00;;
57341;SDS011;43175;51.002;18.316;2023-04-25T11:16:29;11.60;;;5.10;;
57341;SDS011;43175;51.002;18.316;2023-04-25T11:18:59;11.60;;;5.30;;
57341;SDS011;43175;51.002;18.316;2023-04-25T11:21:25;11.90;;;5.40;;
57341;SDS011;43175;51.002;18.316;2023-04-25T11:23:57;11.70;;;5.50;;
57341;SDS011;43175;51.002;18.316;2023-04-25T11:26:23;12.40;;;5.60;;
57341;SDS011;43175;51.002;18.316;2023-04-25T11:28:50;12.80;;;5.50;;
57341;SDS011;43175;51.002;18.316;2023-04-25T11:31:15;11.30;;;5.50;;
57341;SDS011;43175;51.002;18.316;2023-04-25T11:33:41;13.30;;;5.80;;
57341;SDS011;43175;51.002;18.316;2023-04-25T11:36:07;11.40;;;5.20;;
57341;SDS011;43175;51.002;18.316;2023-04-25T11:38:33;13.00;;;5.90;;
57341;SDS011;43175;51.002;18.316;2023-04-25T11:40:59;12.80;;;5.50;;
57341;SDS011;43175;51.002;18.316;2023-04-25T11:43:25;12.80;;;5.80;;
57341;SDS011;43175;51.002;18.316;2023-04-25T11:45:51;13.20;;;5.80;;
57341;SDS011;43175;51.002;18.316;2023-04-25T11:48:18;14.70;;;5.50;;
57341;SDS011;43175;51.002;18.316;2023-04-25T11:50:44;12.50;;;5.70;;
57341;SDS011;43175;51.002;18.316;2023-04-25T11:53:09;11.20;;;5.50;;
57341;SDS011;43175;51.002;18.316;2023-04-25T11:55:35;12.60;;;5.90;;
57341;SDS011;43175;51.002;18.316;2023-04-25T11:58:03;13.80;;;5.40;;
57341;SDS011;43175;51.002;18.316;2023-04-25T12:00:29;12.10;;;5.70;;
57341;SDS011;43175;51.002;18.316;2023-04-25T12:02:56;10.90;;;5.30;;
57341;SDS011;43175;51.002;18.316;2023-04-25T12:05:29;11.00;;;5.40;;
57341;SDS011;43175;51.002;18.316;2023-04-25T12:08:15;14.30;;;6.00;;
57341;SDS011;43175;51.002;18.316;2023-04-25T12:10:44;12.80;;;5.90;;
57341;SDS011;43175;51.002;18.316;2023-04-25T12:13:19;13.30;;;6.10;;
57341;SDS011;43175;51.002;18.316;2023-04-25T12:15:49;13.60;;;6.30;;
57341;SDS011;43175;51.002;18.316;2023-04-25T12:18:18;13.60;;;5.90;;
57341;SDS011;43175;51.002;18.316;2023-04-25T12:20:44;13.70;;;6.10;;
57341;SDS011;43175;51.002;18.316;2023-04-25T12:23:10;13.40;;;6.40;;
57341;SDS011;43175;51.002;18.316;2023-04-25T12:25:43;12.80;;;6.10;;
57341;SDS011;43175;51.002;18.316;2023-04-25T12:28:14;11.60;;;5.70;;
57341;SDS011;43175;51.002;18.316;2023-04-25T12:30:53;13.20;;;5.50;;
57341;SDS011;43175;51.002;18.316;2023-04-25T12:33:26;16.70;;;8.40;;
57341;SDS011;43175;51.002;18.316;2023-04-25T12:35:56;18.60;;;9.70;;
57341;SDS011;43175;51.002;18.316;2023-04-25T12:38:26;12.70;;;6.30;;
57341;SDS011;43175;51.002;18.316;2023-04-25T12:40:54;14.00;;;6.80;;
57341;SDS011;43175;51.002;18.316;2023-04-25T12:43:20;11.40;;;6.00;;
57341;SDS011;43175;51.002;18.316;2023-04-25T12:45:47;12.50;;;5.90;;
57341;SDS011;43175;51.002;18.316;2023-04-25T12:48:15;11.80;;;5.90;;
57341;SDS011;43175;51.002;18.316;2023-04-25T12:50:41;11.80;;;5.30;;
57341;SDS011;43175;51.002;18.316;2023-04-25T12:53:06;13.70;;;6.00;;
57341;SDS011;43175;51.002;18.316;2023-04-25T12:55:32;14.40;;;6.50;;
57341;SDS011;43175;51.002;18.316;2023-04-25T12:57:57;11.00;;;4.30;;
57341;SDS011;43175;51.002;18.316;2023-04-25T13:00:23;10.80;;;4.20;;
57341;SDS011;43175;51.002;18.316;2023-04-25T13:02:48;10.40;;;4.10;;
57341;SDS011;43175;51.002;18.316;2023-04-25T13:05:14;9.70;;;3.90;;
57341;SDS011;43175;51.002;18.316;2023-04-25T13:07:40;11.40;;;4.40;;
57341;SDS011;43175;51.002;18.316;2023-04-25T13:10:06;11.80;;;4.60;;
57341;SDS011;43175;51.002;18.316;2023-04-25T13:12:32;10.00;;;3.80;;
57341;SDS011;43175;51.002;18.316;2023-04-25T13:14:58;9.80;;;3.80;;
57341;SDS011;43175;51.002;18.316;2023-04-25T13:17:23;9.20;;;3.50;;
57341;SDS011;43175;51.002;18.316;2023-04-25T13:19:49;8.70;;;3.50;;
57341;SDS011;43175;51.002;18.316;2023-04-25T13:22:15;9.30;;;3.50;;
57341;SDS011;43175;51.002;18.316;2023-04-25T13:24:42;8.60;;;3.20;;
57341;SDS011;43175;51.002;18.316;2023-04-25T13:27:07;9.20;;;3.20;;
57341;SDS011;43175;51.002;18.316;2023-04-25T13:29:33;9.50;;;3.40;;
57341;SDS011;43175;51.002;18.316;2023-04-25T13:32:01;8.60;;;2.70;;
57341;SDS011;43175;51.002;18.316;2023-04-25T13:34:27;8.40;;;2.90;;
57341;SDS011;43175;51.002;18.316;2023-04-25T13:36:53;9.80;;;3.10;;
57341;SDS011;43175;51.002;18.316;2023-04-25T13:39:19;9.60;;;3.50;;
57341;SDS011;43175;51.002;18.316;2023-04-25T13:41:45;9.50;;;3.30;;
57341;SDS011;43175;51.002;18.316;2023-04-25T13:44:10;9.50;;;3.20;;
57341;SDS011;43175;51.002;18.316;2023-04-25T13:46:36;9.60;;;3.30;;
57341;SDS011;43175;51.002;18.316;2023-04-25T13:49:03;9.80;;;3.40;;
57341;SDS011;43175;51.002;18.316;2023-04-25T13:51:29;9.00;;;3.50;;
57341;SDS011;43175;51.002;18.316;2023-04-25T13:53:55;10.40;;;4.20;;
57341;SDS011;43175;51.002;18.316;2023-04-25T13:56:21;11.00;;;4.20;;
57341;SDS011;43175;51.002;18.316;2023-04-25T13:58:48;16.90;;;6.70;;
57341;SDS011;43175;51.002;18.316;2023-04-25T14:01:15;12.10;;;4.90;;
57341;SDS011;43175;51.002;18.316;2023-04-25T14:03:40;13.00;;;5.60;;
57341;SDS011;43175;51.002;18.316;2023-04-25T14:06:06;11.40;;;5.10;;
57341;SDS011;43175;51.002;18.316;2023-04-25T14:08:33;9.20;;;3.30;;
57341;SDS011;43175;51.002;18.316;2023-04-25T14:10:59;10.00;;;3.50;;
57341;SDS011;43175;51.002;18.316;2023-04-25T14:13:26;9.90;;;3.60;;
57341;SDS011;43175;51.002;18.316;2023-04-25T14:15:51;9.10;;;3.20;;
57341;SDS011;43175;51.002;18.316;2023-04-25T14:18:17;9.20;;;3.40;;
57341;SDS011;43175;51.002;18.316;2023-04-25T14:20:44;8.10;;;2.90;;
57341;SDS011;43175;51.002;18.316;2023-04-25T14:23:10;9.60;;;3.20;;
57341;SDS011;43175;51.002;18.316;2023-04-25T14:25:36;9.00;;;3.20;;
57341;SDS011;43175;51.002;18.316;2023-04-25T14:28:01;9.40;;;3.20;;